| Date | Time | Temp. (oF) | Dew Point (oF) | Rel. Hum. (%) | Press. (in.) | Wind Dir. | Wind Speed (mph) | Hourly Rainfall (in.) |
|
|---|---|---|---|---|---|---|---|---|---|
| 1 | 05/12 | 00:00 | 59 | 43 | 57 | 30.34 | ESE | 1 | 0.00 |
| 2 | 05/11 | 23:00 | 59 | 41 | 52 | 30.37 | SSE | 0 | 0.00 |
| 3 | 05/11 | 22:00 | 60 | 45 | 58 | 30.36 | E | 3 | 0.00 |
| 4 | 05/11 | 21:00 | 62 | 44 | 52 | 30.38 | SE | 1 | 0.00 |
| 5 | 05/11 | 20:00 | 65 | 41 | 42 | 30.37 | ESE | 3 | 0.00 |
| 6 | 05/11 | 19:00 | 69 | 39 | 35 | 30.36 | E | 0 | 0.00 |
| 7 | 05/11 | 18:00 | 69 | 39 | 35 | 30.37 | NE | 1 | 0.00 |
| 8 | 05/11 | 17:00 | 69 | 39 | 35 | 30.38 | SSE | 3 | 0.00 |
| 9 | 05/11 | 16:00 | 68 | 41 | 38 | 30.40 | SSE | 2 | 0.00 |
| 10 | 05/11 | 15:00 | 67 | 38 | 36 | 30.43 | N | 7 | 0.00 |
| 11 | 05/11 | 14:00 | 65 | 36 | 35 | 30.45 | NNE | 2 | 0.00 |
| 12 | 05/11 | 13:00 | 63 | 37 | 39 | 30.47 | S | 4 | 0.00 |
| 13 | 05/11 | 12:00 | 62 | 35 | 38 | 30.47 | WSW | 3 | 0.00 |
| 14 | 05/11 | 11:00 | 61 | 34 | 37 | 30.49 | NNW | 3 | 0.00 |
| 15 | 05/11 | 10:00 | 59 | 34 | 40 | 30.48 | N | 7 | 0.00 |
| 16 | 05/11 | 09:00 | 57 | 32 | 39 | 30.50 | NNW | 5 | 0.00 |
| 17 | 05/11 | 08:00 | 54 | 36 | 51 | 30.50 | NNW | 3 | 0.00 |
| 18 | 05/11 | 07:00 | 49 | 33 | 55 | 30.47 | NNW | 4 | 0.00 |
| 19 | 05/11 | 06:00 | 47 | 32 | 57 | 30.45 | N | 4 | 0.00 |
| 20 | 05/11 | 05:00 | 46 | 39 | 77 | 30.43 | WNW | 0 | 0.00 |
| 21 | 05/11 | 04:00 | 48 | 39 | 72 | 30.40 | W | 0 | 0.00 |
| 22 | 05/11 | 03:00 | 51 | 39 | 64 | 30.39 | W | 1 | 0.00 |
| 23 | 05/11 | 02:00 | 54 | 36 | 52 | 30.37 | NW | 0 | 0.00 |
| 24 | 05/11 | 01:00 | 57 | 34 | 43 | 30.36 | W | 1 | 0.00 |